Time;durP1;ratioP1;P1;durP2;ratioP2;P2;SDS_P1;SDS_P2;PMS_P1;PMS_P2;Temp;Humidity;BMP_temperature;BMP_pressure;BME280_temperature;BME280_humidity;BME280_pressure;Samples;Min_cycle;Max_cycle;Signal;HPM_P1;HPM_P2
2021/04/08 00:00:28;;;;;;;13.07;6.43;;;;;;;15.58;40.12;100529.03;143739;568;46010;-75
2021/04/08 00:02:55;;;;;;;18.08;7.43;;;;;;;15.58;40.72;100526.41;143740;589;46010;-76
2021/04/08 00:05:22;;;;;;;12.00;6.03;;;;;;;15.73;40.19;100514.63;143741;670;46018;-76
2021/04/08 00:07:50;;;;;;;16.60;6.10;;;;;;;15.69;41.71;100518.87;143738;576;46034;-76
2021/04/08 00:10:17;;;;;;;15.85;5.45;;;;;;;15.68;42.74;100524.97;143739;575;47008;-77
2021/04/08 00:12:44;;;;;;;17.00;5.87;;;;;;;15.75;42.59;100523.41;143739;568;46017;-76
2021/04/08 00:15:14;;;;;;;13.32;5.37;;;;;;;15.66;43.92;100529.22;143744;578;45019;-76
2021/04/08 00:17:41;;;;;;;11.82;5.85;;;;;;;15.59;43.87;100524.69;143738;624;46020;-75
2021/04/08 00:20:20;;;;;;;21.92;6.43;;;;;;;15.61;43.22;100515.16;143740;577;46026;-76
2021/04/08 00:22:46;;;;;;;12.27;5.87;;;;;;;15.61;42.92;100515.16;143741;570;46030;-76
2021/04/08 00:25:14;;;;;;;13.85;5.40;;;;;;;15.60;43.64;100521.22;143739;571;49006;-77
2021/04/08 00:27:42;;;;;;;16.92;7.00;;;;;;;15.62;43.14;100523.03;143741;568;46018;-76
2021/04/08 00:30:11;;;;;;;20.17;6.90;;;;;;;15.66;43.71;100518.78;143738;592;47008;-75
2021/04/08 00:32:38;;;;;;;19.27;8.10;;;;;;;15.64;44.14;100517.88;143739;567;46018;-75
2021/04/08 00:35:06;;;;;;;14.48;7.15;;;;;;;15.60;43.83;100514.25;143742;644;46010;-76
2021/04/08 00:37:34;;;;;;;13.55;6.55;;;;;;;15.50;44.09;100517.47;143739;652;47021;-75
2021/04/08 00:40:01;;;;;;;13.25;5.50;;;;;;;15.52;44.64;100518.41;143739;599;46018;-75
2021/04/08 00:42:28;;;;;;;17.00;6.57;;;;;;;15.51;44.81;100516.59;143739;578;46018;-75
2021/04/08 00:44:55;;;;;;;15.98;6.15;;;;;;;15.43;44.59;100528.59;143741;576;48006;-75
2021/04/08 00:47:22;;;;;;;13.43;5.10;;;;;;;15.54;45.28;100518.44;143740;614;46010;-76
2021/04/08 00:49:49;;;;;;;15.02;6.00;;;;;;;15.42;45.18;100522.50;143738;662;46018;-75
2021/04/08 00:52:16;;;;;;;17.55;5.37;;;;;;;15.37;45.23;100523.19;143740;642;46010;-75
2021/04/08 00:54:44;;;;;;;13.60;5.07;;;;;;;15.41;45.25;100525.03;143740;569;48006;-75
2021/04/08 00:57:11;;;;;;;10.38;5.68;;;;;;;15.35;45.02;100528.34;143737;624;48020;-75
2021/04/08 00:59:38;;;;;;;12.10;5.85;;;;;;;15.32;43.18;100530.88;143740;587;46010;-74
2021/04/08 01:02:05;;;;;;;11.05;5.22;;;;;;;15.25;41.67;100532.44;143741;571;46010;-76
2021/04/08 01:04:32;;;;;;;10.10;4.97;;;;;;;15.15;41.13;100524.31;143740;587;48006;-76
2021/04/08 01:06:59;;;;;;;11.75;5.15;;;;;;;15.22;41.32;100532.34;143740;628;46908;-76
2021/04/08 01:09:26;;;;;;;12.93;5.00;;;;;;;15.24;42.80;100535.91;143738;599;46018;-76
2021/04/08 01:11:53;;;;;;;14.27;4.82;;;;;;;15.25;44.06;100536.78;143737;583;46011;-76
2021/04/08 01:14:21;;;;;;;14.65;6.10;;;;;;;15.29;44.80;100543.84;143740;694;47008;-78
2021/04/08 01:16:55;;;;;;;17.00;7.00;;;;;;;15.28;43.54;100549.06;143740;645;46012;-76
2021/04/08 01:20:07;;;;;;;17.85;6.60;;;;;;;15.30;42.92;100544.78;143738;573;47008;-76
2021/04/08 01:23:10;;;;;;;12.15;5.43;;;;;;;15.28;43.07;100543.81;143742;580;46010;-78
2021/04/08 01:26:13;;;;;;;12.80;5.80;;;;;;;15.32;44.31;100543.94;143744;623;46020;-76
2021/04/08 01:28:43;;;;;;;17.00;6.40;;;;;;;15.25;45.54;100535.03;143739;578;46019;-76
2021/04/08 01:31:12;;;;;;;12.82;6.82;;;;;;;15.24;45.24;100532.41;143739;665;46018;-76
2021/04/08 01:33:43;;;;;;;17.50;6.60;;;;;;;15.27;45.79;100545.56;143742;564;46010;-75
2021/04/08 01:36:15;;;;;;;16.35;6.72;;;;;;;15.30;45.14;100543.03;143742;594;46018;-76
2021/04/08 01:38:49;;;;;;;20.02;6.72;;;;;;;15.33;45.26;100544.84;143736;594;48020;-76
2021/04/08 01:41:19;;;;;;;15.48;5.87;;;;;;;15.24;43.74;100554.19;143738;668;47008;-76
2021/04/08 01:43:49;;;;;;;14.75;5.43;;;;;;;15.24;43.02;100554.19;143739;588;46012;-75
2021/04/08 01:46:21;;;;;;;11.15;5.35;;;;;;;15.20;42.42;100551.41;143739;584;48010;-75
2021/04/08 01:48:50;;;;;;;13.75;5.80;;;;;;;15.24;43.13;100561.12;143736;611;48020;-76
2021/04/08 01:51:19;;;;;;;12.57;5.60;;;;;;;15.14;42.10;100552.16;143739;570;47008;-75
2021/04/08 01:53:50;;;;;;;14.18;6.50;;;;;;;15.19;42.18;100562.72;143738;637;46018;-75
2021/04/08 01:56:20;;;;;;;11.50;5.62;;;;;;;15.24;44.11;100566.37;143740;602;49010;-75
2021/04/08 01:58:49;;;;;;;10.75;5.72;;;;;;;15.25;43.72;100563.78;143740;596;46010;-75
2021/04/08 02:01:20;;;;;;;13.02;6.05;;;;;;;15.31;43.70;100577.88;143742;720;46018;-74
2021/04/08 02:03:49;;;;;;;10.50;5.72;;;;;;;15.15;43.77;100580.03;143740;577;46032;-78
2021/04/08 02:06:17;;;;;;;12.32;5.68;;;;;;;15.10;43.78;100579.00;143742;586;46019;-76
2021/04/08 02:08:47;;;;;;;17.33;6.15;;;;;;;15.20;44.11;100578.44;143742;605;46010;-75
2021/04/08 02:11:15;;;;;;;12.37;5.25;;;;;;;15.25;45.10;100586.41;143740;563;46018;-76
2021/04/08 02:13:45;;;;;;;12.18;5.65;;;;;;;15.25;46.28;100587.28;143739;613;47010;-75
2021/04/08 02:16:13;;;;;;;25.90;5.68;;;;;;;15.22;46.82;100583.69;143742;579;46018;-79
2021/04/08 02:18:42;;;;;;;12.52;5.62;;;;;;;15.21;47.13;100580.22;143741;567;46010;-76
2021/04/08 02:21:10;;;;;;;14.38;5.80;;;;;;;15.23;47.34;100575.94;143739;668;46030;-75
2021/04/08 02:23:40;;;;;;;14.05;6.18;;;;;;;15.13;47.66;100578.19;143741;574;46025;-76
2021/04/08 02:26:10;;;;;;;13.40;5.93;;;;;;;15.17;47.80;100585.28;143741;618;48010;-76
2021/04/08 02:28:39;;;;;;;19.67;7.00;;;;;;;15.15;48.28;100577.41;143740;579;47023;-76
2021/04/08 02:31:08;;;;;;;18.62;6.72;;;;;;;15.14;47.13;100583.50;143740;733;47008;-75
2021/04/08 02:33:36;;;;;;;14.98;6.20;;;;;;;15.05;47.46;100584.94;143740;697;46010;-76
2021/04/08 02:36:07;;;;;;;13.45;6.00;;;;;;;14.88;48.16;100581.78;143743;581;46017;-76
2021/04/08 02:38:36;;;;;;;15.65;6.50;;;;;;;14.87;47.41;100593.06;143740;665;46022;-75
2021/04/08 02:41:08;;;;;;;20.10;8.20;;;;;;;14.80;47.21;100594.59;143741;597;46018;-76
2021/04/08 02:43:36;;;;;;;10.85;6.03;;;;;;;14.85;47.91;100592.13;143742;568;47008;-76
2021/04/08 02:46:03;;;;;;;14.82;6.05;;;;;;;14.80;48.13;100599.81;143743;639;46018;-75
2021/04/08 02:48:32;;;;;;;12.15;6.03;;;;;;;14.83;47.61;100597.31;143740;616;47022;-75
2021/04/08 02:51:04;;;;;;;13.52;6.30;;;;;;;14.85;48.28;100602.56;143741;602;46019;-76
2021/04/08 02:54:12;;;;;;;15.15;6.72;;;;;;;14.75;48.52;100602.28;143741;568;46027;-75
2021/04/08 02:56:46;;;;;;;11.95;6.15;;;;;;;14.78;48.11;100607.59;143742;584;46018;-75
2021/04/08 02:59:17;;;;;;;13.20;6.37;;;;;;;14.70;49.48;100603.88;143740;588;46012;-77
2021/04/08 03:02:10;;;;;;;19.98;5.87;;;;;;;14.70;50.03;100616.91;143740;577;47008;-75
2021/04/08 03:04:59;;;;;;;12.37;6.03;;;;;;;14.79;48.58;100618.91;143739;641;46010;-75
2021/04/08 03:07:34;;;;;;;14.90;5.87;;;;;;;14.74;49.03;100615.28;143742;742;48008;-76
2021/04/08 03:10:05;;;;;;;13.27;5.62;;;;;;;14.64;45.05;100624.53;143741;651;46010;-76
2021/04/08 03:12:35;;;;;;;12.80;4.95;;;;;;;14.50;44.54;100633.59;143742;578;46009;-76
2021/04/08 03:15:05;;;;;;;9.05;4.80;;;;;;;14.64;43.28;100627.16;143742;596;46010;-76
2021/04/08 03:17:36;;;;;;;7.35;4.20;;;;;;;14.53;43.53;100632.00;143741;571;48010;-75
2021/04/08 03:20:05;;;;;;;14.52;4.97;;;;;;;14.58;42.50;100642.59;143737;586;48020;-76
2021/04/08 03:22:35;;;;;;;10.20;5.00;;;;;;;14.52;42.64;100637.19;143741;585;46018;-76
2021/04/08 03:25:04;;;;;;;7.80;4.43;;;;;;;14.58;42.41;100647.81;143740;613;46010;-76
2021/04/08 03:27:31;;;;;;;8.90;4.60;;;;;;;14.65;43.86;100648.91;143739;568;47006;-76
2021/04/08 03:29:59;;;;;;;10.45;4.45;;;;;;;14.74;45.35;100651.81;143741;580;46010;-75
2021/04/08 03:32:26;;;;;;;16.42;4.93;;;;;;;14.82;45.89;100652.94;143741;589;47008;-77
2021/04/08 03:34:55;;;;;;;13.73;4.45;;;;;;;14.80;44.61;100654.63;143743;620;46010;-76
2021/04/08 03:37:22;;;;;;;13.10;4.55;;;;;;;14.73;44.65;100658.75;143742;681;48010;-77
2021/04/08 03:39:50;;;;;;;11.07;4.60;;;;;;;14.76;45.80;100660.56;143739;564;48022;-75
2021/04/08 03:42:18;;;;;;;10.73;4.87;;;;;;;14.60;46.37;100664.41;143742;631;47008;-76
2021/04/08 03:44:45;;;;;;;11.60;5.25;;;;;;;14.68;46.80;100665.56;143738;608;46018;-76
2021/04/08 03:47:13;;;;;;;13.85;5.32;;;;;;;14.74;46.09;100667.47;143743;568;48010;-76
2021/04/08 03:49:42;;;;;;;11.40;4.95;;;;;;;14.53;45.91;100673.75;143743;578;46010;-75
2021/04/08 03:52:12;;;;;;;10.57;4.80;;;;;;;14.67;46.18;100678.53;143740;658;47008;-76
2021/04/08 03:54:42;;;;;;;7.12;4.82;;;;;;;14.51;44.44;100682.34;143742;567;46012;-81
2021/04/08 03:57:14;;;;;;;11.52;4.70;;;;;;;14.32;43.86;100684.28;143742;704;46017;-76
2021/04/08 03:59:41;;;;;;;12.57;5.65;;;;;;;14.41;44.26;100688.06;143740;569;48023;-76
2021/04/08 04:02:10;;;;;;;12.32;5.53;;;;;;;14.42;44.18;100695.03;143740;590;46018;-76
2021/04/08 04:04:38;;;;;;;10.30;5.00;;;;;;;14.58;46.00;100699.09;143739;621;47030;-75
2021/04/08 04:07:06;;;;;;;10.98;5.22;;;;;;;14.57;46.19;100694.72;143741;606;47010;-76
2021/04/08 04:09:33;;;;;;;14.32;5.53;;;;;;;14.62;46.39;100701.00;143741;591;46010;-76
2021/04/08 04:12:01;;;;;;;21.45;6.18;;;;;;;14.64;47.78;100701.91;143743;568;46008;-76
2021/04/08 04:14:30;;;;;;;33.15;8.07;;;;;;;14.66;49.44;100695.91;143742;588;46012;-75
2021/04/08 04:16:59;;;;;;;67.40;11.60;;;;;;;14.55;49.87;100710.34;143741;626;48010;-79
2021/04/08 04:19:27;;;;;;;49.03;11.20;;;;;;;14.58;49.99;100709.53;143738;568;48022;-79
2021/04/08 04:21:54;;;;;;;44.33;10.05;;;;;;;14.49;50.01;100703.16;143739;622;47021;-76
2021/04/08 04:24:21;;;;;;;22.60;7.10;;;;;;;14.55;48.80;100711.22;143740;587;47010;-76
2021/04/08 04:26:48;;;;;;;12.10;5.20;;;;;;;14.40;48.82;100714.97;143741;580;48010;-77
2021/04/08 04:29:15;;;;;;;12.05;5.55;;;;;;;14.35;48.27;100720.00;143740;569;46010;-76
2021/04/08 04:31:42;;;;;;;13.75;5.72;;;;;;;14.38;49.06;100719.25;143742;578;45041;-76
2021/04/08 04:34:09;;;;;;;17.60;6.78;;;;;;;14.38;48.71;100717.50;143738;562;47010;-76
2021/04/08 04:36:36;;;;;;;7.62;4.82;;;;;;;14.44;49.25;100732.50;143741;641;46019;-76
2021/04/08 04:39:05;;;;;;;13.57;5.60;;;;;;;14.59;49.72;100732.19;143739;571;46020;-76
2021/04/08 04:41:32;;;;;;;13.20;5.37;;;;;;;14.57;48.99;100737.34;143739;571;47011;-76
2021/04/08 04:43:59;;;;;;;15.73;5.75;;;;;;;14.39;47.52;100740.19;143743;565;46012;-79
2021/04/08 04:46:26;;;;;;;14.80;6.40;;;;;;;14.10;47.98;100750.41;143742;695;48020;-77
2021/04/08 04:48:54;;;;;;;15.52;7.55;;;;;;;14.01;47.88;100757.00;143742;589;46011;-78
2021/04/08 04:51:22;;;;;;;15.90;6.15;;;;;;;13.86;47.18;100759.91;143741;568;47008;-77
2021/04/08 04:53:49;;;;;;;11.75;6.40;;;;;;;13.83;47.47;100757.19;143741;567;46010;-76
2021/04/08 04:56:16;;;;;;;9.05;5.70;;;;;;;14.04;48.09;100773.66;143742;568;46018;-75
2021/04/08 04:58:43;;;;;;;12.50;6.00;;;;;;;14.22;47.90;100772.56;143738;581;48023;-75
2021/04/08 05:01:10;;;;;;;16.35;6.62;;;;;;;14.36;48.79;100767.84;143742;572;46008;-77
2021/04/08 05:03:37;;;;;;;11.27;5.25;;;;;;;14.21;46.76;100779.50;143743;587;46012;-76
2021/04/08 05:06:04;;;;;;;14.10;6.28;;;;;;;14.39;47.63;100781.00;143740;576;47010;-76
2021/04/08 05:08:31;;;;;;;15.20;5.85;;;;;;;14.53;48.13;100783.31;143740;599;47022;-75
2021/04/08 05:10:59;;;;;;;9.70;5.85;;;;;;;14.55;48.58;100783.41;143742;572;46008;-76
2021/04/08 05:13:26;;;;;;;17.10;7.20;;;;;;;14.62;48.33;100788.00;143742;625;46010;-75
2021/04/08 05:15:53;;;;;;;20.67;7.62;;;;;;;14.63;48.20;100779.31;143742;703;48010;-75
2021/04/08 05:18:20;;;;;;;24.65;7.68;;;;;;;14.54;47.89;100784.22;143740;647;47022;-75
2021/04/08 05:20:47;;;;;;;19.17;7.43;;;;;;;14.65;48.03;100785.50;143741;585;46008;-76
2021/04/08 05:23:15;;;;;;;21.48;10.48;;;;;;;14.73;48.34;100786.63;143743;568;46016;-76
2021/04/08 05:25:43;;;;;;;17.52;10.23;;;;;;;14.82;50.15;100795.63;143739;571;49010;-75
2021/04/08 05:28:10;;;;;;;22.83;10.55;;;;;;;14.81;51.51;100797.38;143737;569;48023;-75
2021/04/08 05:30:37;;;;;;;21.95;9.07;;;;;;;14.86;49.78;100798.44;143740;569;46018;-76
2021/04/08 05:33:05;;;;;;;18.60;9.02;;;;;;;14.86;50.61;100794.91;143741;580;46017;-75
2021/04/08 05:35:32;;;;;;;15.88;8.30;;;;;;;14.98;50.41;100792.72;143741;615;48006;-75
2021/04/08 05:37:59;;;;;;;14.70;8.82;;;;;;;15.04;50.17;100792.94;143742;612;46010;-76
2021/04/08 05:40:26;;;;;;;19.60;9.13;;;;;;;15.10;49.82;100800.97;143739;578;46018;-76
2021/04/08 05:42:53;;;;;;;20.20;7.72;;;;;;;15.14;50.10;100802.87;143743;578;46010;-76
2021/04/08 05:45:21;;;;;;;15.95;6.75;;;;;;;15.19;47.66;100792.56;143744;613;46008;-76
2021/04/08 05:47:49;;;;;;;16.95;8.15;;;;;;;15.17;47.78;100791.62;143741;571;47022;-76
2021/04/08 05:50:16;;;;;;;17.12;6.60;;;;;;;15.25;47.88;100798.88;143741;645;47008;-75
2021/04/08 05:52:43;;;;;;;19.30;6.65;;;;;;;15.32;47.37;100813.03;143739;616;46021;-76
2021/04/08 05:55:12;;;;;;;15.55;6.57;;;;;;;15.39;47.57;100807.19;143742;579;46018;-75
2021/04/08 05:57:39;;;;;;;16.70;7.45;;;;;;;15.50;47.65;100812.75;143743;589;46010;-75
2021/04/08 06:00:10;;;;;;;10.77;5.95;;;;;;;15.48;47.72;100815.34;143742;587;46008;-75
2021/04/08 06:02:38;;;;;;;15.70;5.93;;;;;;;15.39;47.67;100822.88;143742;571;45018;-75
2021/04/08 06:05:07;;;;;;;13.05;6.62;;;;;;;15.48;46.80;100825.78;143742;596;47008;-76
2021/04/08 06:07:34;;;;;;;20.67;6.87;;;;;;;15.46;47.36;100826.56;143742;588;46010;-75
2021/04/08 06:10:01;;;;;;;11.85;6.12;;;;;;;15.44;48.67;100833.47;143741;600;47008;-75
2021/04/08 06:12:28;;;;;;;15.77;5.90;;;;;;;15.47;48.12;100830.94;143743;575;46013;-75
2021/04/08 06:14:56;;;;;;;13.05;5.95;;;;;;;15.47;48.31;100833.56;143740;568;46018;-76
2021/04/08 06:17:23;;;;;;;14.68;5.25;;;;;;;15.58;48.29;100839.16;143741;567;46010;-75
2021/04/08 06:19:50;;;;;;;11.57;5.55;;;;;;;15.57;45.60;100848.69;143741;587;46010;-75
2021/04/08 06:22:17;;;;;;;14.57;5.97;;;;;;;15.52;46.30;100846.78;143742;613;46014;-77
2021/04/08 06:24:44;;;;;;;12.05;5.60;;;;;;;15.27;46.70;100864.25;143740;583;46020;-77
2021/04/08 06:27:11;;;;;;;13.48;5.60;;;;;;;15.30;47.27;100866.09;143741;586;46010;-75
2021/04/08 06:29:38;;;;;;;10.80;5.82;;;;;;;15.10;42.58;100865.38;143742;565;45018;-78
2021/04/08 06:32:06;;;;;;;13.77;6.18;;;;;;;14.94;41.82;100863.94;143741;569;46018;-78
2021/04/08 06:34:33;;;;;;;12.43;5.50;;;;;;;14.83;42.33;100865.28;143740;612;46019;-76
2021/04/08 06:37:00;;;;;;;11.43;5.80;;;;;;;14.70;43.00;100870.06;143738;579;46018;-76
2021/04/08 06:39:29;;;;;;;14.00;5.25;;;;;;;14.76;42.35;100872.88;143739;584;46018;-75
2021/04/08 06:41:58;;;;;;;17.10;5.70;;;;;;;14.71;43.69;100889.22;143741;644;46013;-75
2021/04/08 06:44:28;;;;;;;11.43;5.00;;;;;;;14.69;42.34;100896.09;143740;587;46018;-74
2021/04/08 06:47:02;;;;;;;12.82;5.20;;;;;;;14.66;43.29;100898.59;143740;568;46018;-75
2021/04/08 06:49:51;;;;;;;10.77;5.90;;;;;;;14.42;41.36;100917.66;143738;580;46019;-77
2021/04/08 06:52:19;;;;;;;17.37;5.35;;;;;;;14.27;42.04;100920.59;143737;614;46010;-75
2021/04/08 06:54:46;;;;;;;12.18;6.90;;;;;;;14.19;41.55;100915.88;143743;635;46010;-75
2021/04/08 06:57:17;;;;;;;15.63;6.90;;;;;;;14.14;41.68;100935.66;143738;634;46021;-77
2021/04/08 06:59:48;;;;;;;11.50;6.28;;;;;;;13.90;41.33;100940.81;143740;585;46010;-75
2021/04/08 07:02:20;;;;;;;11.18;5.87;;;;;;;13.75;41.50;100946.25;143736;578;46012;-77
2021/04/08 07:04:47;;;;;;;12.70;6.00;;;;;;;13.66;41.66;100951.97;143742;562;47010;-76
2021/04/08 07:07:15;;;;;;;17.10;11.00;;;;;;;13.58;41.76;100951.66;143738;571;46010;-74
2021/04/08 07:09:43;;;;;;;26.00;15.55;;;;;;;13.38;42.19;100963.81;143739;706;46008;-74
2021/04/08 07:12:12;;;;;;;18.75;8.40;;;;;;;13.14;42.04;100989.59;143742;615;46012;-75
2021/04/08 07:14:40;;;;;;;19.17;12.73;;;;;;;12.91;42.10;100970.34;143743;657;46008;-74
2021/04/08 07:17:13;;;;;;;20.62;6.62;;;;;;;12.86;42.60;100978.78;143738;590;46010;-74
2021/04/08 07:19:40;;;;;;;11.35;6.87;;;;;;;12.85;42.92;100990.00;143737;606;47008;-74
2021/04/08 07:22:07;;;;;;;14.48;8.18;;;;;;;12.77;43.41;100992.25;143740;565;46012;-75
2021/04/08 07:24:48;;;;;;;16.20;9.13;;;;;;;12.81;42.90;101002.00;143742;572;46008;-76
2021/04/08 07:27:19;;;;;;;15.32;10.32;;;;;;;12.88;44.82;101009.25;143732;572;48021;-77
2021/04/08 07:29:59;;;;;;;12.15;6.15;;;;;;;12.89;42.69;101005.81;143736;623;46018;-75
2021/04/08 07:32:29;;;;;;;11.25;7.95;;;;;;;12.74;42.10;101023.34;143739;582;46011;-75
2021/04/08 07:35:01;;;;;;;20.85;6.37;;;;;;;12.41;41.86;101023.50;143739;568;46019;-76
2021/04/08 07:37:31;;;;;;;14.55;6.18;;;;;;;12.32;43.70;101038.66;143740;574;46010;-75
2021/04/08 07:40:00;;;;;;;15.95;7.18;;;;;;;12.31;43.37;101047.28;143740;605;45020;-75
2021/04/08 07:42:33;;;;;;;12.63;5.07;;;;;;;12.29;43.45;101041.13;143739;637;46010;-74
2021/04/08 07:45:09;;;;;;;9.70;5.50;;;;;;;12.33;44.00;101047.34;143739;570;46018;-74
2021/04/08 07:47:41;;;;;;;11.85;6.22;;;;;;;12.44;44.55;101062.66;143740;562;45019;-74
2021/04/08 07:50:17;;;;;;;13.93;5.60;;;;;;;12.27;42.97;101067.84;143738;584;47008;-77
2021/04/08 07:52:49;;;;;;;16.27;8.98;;;;;;;12.28;42.79;101074.84;143739;640;47008;-77
2021/04/08 07:55:48;;;;;;;14.45;6.45;;;;;;;12.20;42.92;101090.06;143741;579;46018;-74
2021/04/08 07:58:16;;;;;;;9.50;5.28;;;;;;;12.23;42.00;101095.41;143737;569;47021;-76
2021/04/08 08:00:51;;;;;;;11.07;4.65;;;;;;;12.04;41.84;101096.19;143737;611;46018;-83
2021/04/08 08:03:25;;;;;;;;;;;;;;;11.80;43.00;101132.13;145158;65;186692;-77
2021/04/08 08:05:57;;;;;;;14.40;3.90;;;;;;;11.64;49.00;101142.53;143146;67;62040;-78
2021/04/08 08:10:00;;;;;;;10.35;1.92;;;;;;;;;;144325;61;3171699;-87
2021/04/08 08:13:53;;;;;;;5.55;1.80;;;;;;;;;;143798;589;46020;-85
2021/04/08 08:16:20;;;;;;;5.00;2.12;;;;;;;;;;143752;572;49010;-82
2021/04/08 08:18:46;;;;;;;;;;;;;;;;;;143754;978;48022;-87
2021/04/08 08:21:13;;;;;;;4.80;2.60;;;;;;;;;;143756;619;46020;-84
2021/04/08 08:23:44;;;;;;;6.97;3.15;;;;;;;;;;143751;622;46010;-80
2021/04/08 08:26:28;;;;;;;2.92;2.20;;;;;;;;;;143753;573;48010;-85
2021/04/08 08:28:56;;;;;;;2.58;2.03;;;;;;;;;;143749;624;46010;-82
2021/04/08 08:31:35;;;;;;;2.08;1.80;;;;;;;;;;143753;562;46010;-79
2021/04/08 08:34:05;;;;;;;3.28;1.30;;;;;;;;;;143755;569;46017;-78
2021/04/08 08:36:32;;;;;;;2.55;1.33;;;;;;;;;;143755;562;46022;-82
2021/04/08 08:39:01;;;;;;;4.20;2.10;;;;;;;;;;143756;574;46018;-80
2021/04/08 08:42:53;;;;;;;5.95;2.20;;;;;;;12.96;39.82;101343.62;149048;65;62350;-72
2021/04/08 08:45:21;;;;;;;3.33;1.62;;;;;;;12.01;41.05;101354.81;143015;586;730314;-73
2021/04/08 08:47:51;;;;;;;5.65;2.42;;;;;;;11.52;43.41;101369.91;143749;642;47010;-81
2021/04/08 08:50:19;;;;;;;5.00;2.62;;;;;;;11.12;43.65;101378.63;143751;626;46018;-88
2021/04/08 08:52:50;;;;;;;6.50;2.50;;;;;;;10.81;42.58;101387.97;143751;565;46021;-77
2021/04/08 08:55:20;;;;;;;3.17;1.40;;;;;;;10.50;42.84;101390.28;143754;641;46016;-87
2021/04/08 08:57:53;;;;;;;3.78;1.98;;;;;;;10.44;43.76;101420.13;143749;605;46998;-80
2021/04/08 09:00:21;;;;;;;4.43;2.37;;;;;;;10.36;43.28;101426.37;143751;684;46019;-69
2021/04/08 09:02:48;;;;;;;4.80;2.05;;;;;;;10.30;43.49;101420.28;143753;562;47008;-84
2021/04/08 09:05:21;;;;;;;3.03;2.25;;;;;;;10.22;43.75;101450.19;143751;619;47010;-84
2021/04/08 09:07:58;;;;;;;4.25;1.92;;;;;;;10.18;44.42;101433.59;143752;585;46029;-79
2021/04/08 09:10:31;;;;;;;5.03;3.30;;;;;;;10.13;44.11;101435.44;143754;568;46008;-86
2021/04/08 09:12:58;;;;;;;3.72;2.10;;;;;;;10.11;44.40;101427.56;143753;689;46018;-85
2021/04/08 09:15:26;;;;;;;3.30;2.08;;;;;;;10.10;43.91;101440.72;143755;635;46018;-93
2021/04/08 09:18:04;;;;;;;6.18;2.10;;;;;;;10.11;44.22;101447.72;143750;633;47022;-83
2021/04/08 09:20:33;;;;;;;14.35;3.12;;;;;;;10.12;44.31;101450.31;143752;576;46010;-77
2021/04/08 09:23:07;;;;;;;5.55;2.87;;;;;;;10.11;44.17;101437.22;143754;658;46012;-75
2021/04/08 09:25:52;;;;;;;6.95;2.47;;;;;;;10.16;43.69;101432.78;143751;655;47018;-83
2021/04/08 09:28:20;;;;;;;3.58;2.35;;;;;;;10.14;43.46;101422.28;143745;621;49022;-89
2021/04/08 09:31:09;;;;;;;12.10;2.67;;;;;;;9.90;44.04;101378.91;143749;634;47020;-88
2021/04/08 09:34:02;;;;;;;3.22;2.33;;;;;;;10.15;43.71;101403.00;143752;567;46018;-84
2021/04/08 09:36:41;;;;;;;6.50;2.78;;;;;;;10.24;43.36;101436.16;143748;704;46019;-84
2021/04/08 09:39:29;;;;;;;4.95;2.50;;;;;;;10.02;42.81;101380.50;143749;563;46018;-83
2021/04/08 09:42:01;;;;;;;5.37;3.60;;;;;;;10.33;43.28;101437.75;143750;564;46018;-84
2021/04/08 09:44:29;;;;;;;3.67;2.47;;;;;;;10.32;42.57;101442.12;143751;643;46023;-87
2021/04/08 09:47:01;;;;;;;4.68;2.60;;;;;;;10.35;42.82;101457.03;143754;602;46027;-84
2021/04/08 09:49:53;;;;;;;4.03;2.10;;;;;;;10.34;42.73;101460.50;143747;653;46020;-84
2021/04/08 09:52:21;;;;;;;8.20;3.85;;;;;;;10.31;41.57;101474.53;143752;601;46010;-85
2021/04/08 09:54:56;;;;;;;11.88;5.00;;;;;;;10.32;42.10;101494.66;143753;576;46008;-87
2021/04/08 09:57:40;;;;;;;5.65;3.70;;;;;;;10.34;42.41;101486.75;143752;642;48010;-87
2021/04/08 10:00:13;;;;;;;8.70;3.90;;;;;;;10.33;42.32;101487.63;143750;660;46018;-89
2021/04/08 10:02:59;;;;;;;4.43;3.12;;;;;;;10.38;43.05;101501.59;143752;636;46010;-84
2021/04/08 10:05:39;;;;;;;6.00;2.50;;;;;;;10.43;42.28;101509.38;143750;690;46018;-84
2021/04/08 10:08:07;;;;;;;7.00;3.22;;;;;;;10.37;40.95;101506.88;143752;606;46028;-86
2021/04/08 10:10:43;;;;;;;6.03;3.80;;;;;;;10.36;42.34;101527.03;143751;568;47010;-92
2021/04/08 10:13:29;;;;;;;9.23;3.75;;;;;;;10.40;42.37;101517.31;143750;582;46011;-86
2021/04/08 10:16:07;;;;;;;10.23;4.80;;;;;;;10.45;41.85;101531.25;143750;618;46018;-87
2021/04/08 10:18:34;;;;;;;6.90;4.40;;;;;;;10.52;41.12;101532.91;143753;662;46020;-82
2021/04/08 10:21:13;;;;;;;6.40;3.53;;;;;;;10.57;40.43;101533.69;143752;617;45907;-70
2021/04/08 10:23:43;;;;;;;10.02;3.90;;;;;;;10.55;40.90;101532.88;143748;587;46018;-83
2021/04/08 10:26:16;;;;;;;8.32;5.07;;;;;;;10.56;40.68;101529.34;143752;599;46010;-86
2021/04/08 10:28:47;;;;;;;9.32;5.05;;;;;;;10.56;40.00;101531.97;143751;562;46018;-82
2021/04/08 10:31:25;;;;;;;10.55;4.78;;;;;;;10.66;40.92;101536.19;143751;620;46010;-81
2021/04/08 10:34:07;;;;;;;11.18;5.60;;;;;;;10.69;39.56;101539.66;143750;563;46018;-82
2021/04/08 10:36:58;;;;;;;7.80;3.95;;;;;;;10.74;40.65;101538.69;143747;587;47010;-87
2021/04/08 10:39:33;;;;;;;10.95;5.30;;;;;;;10.70;39.93;101544.03;143756;647;46008;-82
2021/04/08 10:42:22;;;;;;;11.75;5.78;;;;;;;10.74;40.63;101543.94;143751;570;46010;-85
2021/04/08 10:44:51;;;;;;;8.43;3.33;;;;;;;10.75;39.99;101542.19;143751;581;46025;-81
2021/04/08 10:47:20;;;;;;;5.47;3.60;;;;;;;10.80;40.10;101543.84;143749;581;46018;-83
2021/04/08 10:49:58;;;;;;;7.75;4.12;;;;;;;10.83;40.66;101553.47;143753;666;47006;-83
2021/04/08 10:52:35;;;;;;;;;;;;;;;10.89;40.59;101545.47;143753;955;46010;-90
2021/04/08 10:55:11;;;;;;;8.60;4.55;;;;;;;10.87;39.35;101549.00;143757;645;46018;-80
2021/04/08 10:57:39;;;;;;;12.98;4.90;;;;;;;10.90;39.51;101549.84;143753;564;46012;-83
2021/04/08 11:00:09;;;;;;;10.27;4.85;;;;;;;10.93;39.88;101554.16;143754;735;46033;-87
2021/04/08 11:02:38;;;;;;;15.45;8.93;;;;;;;11.00;39.87;101555.78;143751;602;46012;-84
2021/04/08 11:05:08;;;;;;;11.65;7.37;;;;;;;11.10;40.06;101561.75;143752;579;46018;-87
2021/04/08 11:07:37;;;;;;;8.50;3.90;;;;;;;11.19;39.54;101566.88;143751;572;46028;-83
2021/04/08 11:10:13;;;;;;;7.57;3.97;;;;;;;11.23;39.83;101572.97;143752;601;46010;-81
2021/04/08 11:12:40;;;;;;;12.48;5.00;;;;;;;11.28;39.94;101579.00;143749;608;48020;-85
2021/04/08 11:15:10;;;;;;;8.05;5.40;;;;;;;11.32;39.98;101581.56;143749;576;46018;-85
2021/04/08 11:17:44;;;;;;;7.45;4.12;;;;;;;11.35;38.54;101599.03;143753;612;46012;-83
2021/04/08 11:20:13;;;;;;;7.12;4.30;;;;;;;11.31;39.42;101595.59;143753;573;48008;-86
2021/04/08 11:22:47;;;;;;;6.00;4.28;;;;;;;11.31;39.90;101597.34;143750;584;46021;-82
2021/04/08 11:25:15;;;;;;;6.25;3.92;;;;;;;11.23;39.50;101594.84;143751;606;46018;-83
2021/04/08 11:27:46;;;;;;;5.97;3.85;;;;;;;11.20;39.69;101594.06;143751;572;46020;-82
2021/04/08 11:30:20;;;;;;;7.95;3.65;;;;;;;11.21;40.69;101601.91;143752;606;48012;-87
2021/04/08 11:32:51;;;;;;;7.93;4.30;;;;;;;11.20;40.46;101601.94;143749;663;48020;-85
2021/04/08 11:35:27;;;;;;;5.57;4.15;;;;;;;11.25;39.90;101603.59;143750;600;46018;-84
2021/04/08 11:38:35;;;;;;;6.80;4.50;;;;;;;11.29;39.71;101610.53;143749;630;47012;-87
2021/04/08 11:41:11;;;;;;;6.65;3.50;;;;;;;11.28;39.65;101600.91;143754;598;48010;-87
2021/04/08 11:43:56;;;;;;;7.95;4.62;;;;;;;11.27;40.53;101620.19;143748;626;48020;-85
2021/04/08 11:46:37;;;;;;;7.43;5.03;;;;;;;11.26;40.27;101629.00;143753;666;46010;-88
2021/04/08 11:49:16;;;;;;;13.07;6.80;;;;;;;11.29;40.93;101626.31;143752;617;47010;-88